createdAt,value
2022-10-26T00:01:22.765Z,13.63
2022-10-26T00:03:51.123Z,17.30
2022-10-26T00:06:22.161Z,13.15
2022-10-26T00:08:52.199Z,14.52
2022-10-26T00:11:20.258Z,14.10
2022-10-26T00:13:49.172Z,14.57
2022-10-26T00:16:28.116Z,16.23
2022-10-26T00:18:56.268Z,16.92
2022-10-26T00:21:24.304Z,15.02
2022-10-26T00:23:52.469Z,12.25
2022-10-26T00:26:20.353Z,14.13
2022-10-26T00:28:49.002Z,17.67
2022-10-26T00:31:17.912Z,15.07
2022-10-26T00:33:46.115Z,12.52
2022-10-26T00:36:16.949Z,14.07
2022-10-26T00:38:53.834Z,12.10
2022-10-26T00:41:32.369Z,17.40
2022-10-26T00:44:01.367Z,17.60
2022-10-26T00:46:38.017Z,11.45
2022-10-26T00:49:14.599Z,14.52
2022-10-26T00:51:55.671Z,11.38
2022-10-26T00:54:23.948Z,11.60
2022-10-26T00:56:54.960Z,13.32
2022-10-26T00:59:24.337Z,11.55
2022-10-26T01:01:53.529Z,11.35
2022-10-26T01:04:21.814Z,13.80
2022-10-26T01:06:52.075Z,13.48
2022-10-26T01:09:21.892Z,17.85
2022-10-26T01:11:49.803Z,14.75
2022-10-26T01:14:20.094Z,11.07
2022-10-26T01:17:09.468Z,14.02
2022-10-26T01:20:21.604Z,13.15
2022-10-26T01:22:59.848Z,13.35
2022-10-26T01:25:49.499Z,16.63
2022-10-26T01:29:07.491Z,12.15
2022-10-26T01:31:49.693Z,14.85
2022-10-26T01:34:34.968Z,15.95
2022-10-26T01:37:22.495Z,11.88
2022-10-26T01:40:00.374Z,9.82
2022-10-26T01:42:31.155Z,17.02
2022-10-26T01:45:07.398Z,13.10
2022-10-26T01:47:38.245Z,13.40
2022-10-26T01:50:08.905Z,12.30
2022-10-26T01:52:37.146Z,14.38
2022-10-26T01:55:43.068Z,13.10
2022-10-26T01:58:41.543Z,12.80
2022-10-26T02:01:52.323Z,10.43
2022-10-26T02:04:47.182Z,11.90
2022-10-26T02:07:53.841Z,12.60
2022-10-26T02:10:45.529Z,10.63
2022-10-26T02:13:26.153Z,11.30
2022-10-26T02:16:18.922Z,10.95
2022-10-26T02:19:05.859Z,13.38
2022-10-26T02:21:42.102Z,13.57
2022-10-26T02:24:14.496Z,13.98
2022-10-26T02:26:46.590Z,13.60
2022-10-26T02:29:19.021Z,13.07
2022-10-26T02:31:50.274Z,12.15
2022-10-26T02:34:25.965Z,14.93
2022-10-26T02:36:57.703Z,13.30
2022-10-26T02:41:56.818Z,13.40
2022-10-26T02:44:33.606Z,11.70
2022-10-26T02:47:02.269Z,10.18
2022-10-26T02:49:30.506Z,10.13
2022-10-26T02:52:23.144Z,12.07
2022-10-26T02:55:27.580Z,11.13
2022-10-26T02:58:02.489Z,11.82
2022-10-26T03:00:31.276Z,11.95
2022-10-26T03:03:03.870Z,11.15
2022-10-26T03:05:33.270Z,12.23
2022-10-26T03:08:01.934Z,9.93
2022-10-26T03:10:30.813Z,9.90
2022-10-26T03:12:58.583Z,11.85
2022-10-26T03:15:26.525Z,13.90
2022-10-26T03:17:54.528Z,8.93
2022-10-26T03:20:22.705Z,10.55
2022-10-26T03:22:50.645Z,9.20
2022-10-26T03:25:18.616Z,10.70
2022-10-26T03:27:47.726Z,10.65
2022-10-26T03:30:16.572Z,13.57
2022-10-26T03:32:44.681Z,8.93
2022-10-26T03:35:12.515Z,13.82
2022-10-26T03:37:40.578Z,15.50
2022-10-26T03:40:09.765Z,13.73
2022-10-26T03:42:38.406Z,14.23
2022-10-26T03:45:08.306Z,10.77
2022-10-26T03:47:46.108Z,14.18
2022-10-26T03:50:17.608Z,13.68
2022-10-26T03:52:47.276Z,12.23
2022-10-26T03:55:15.689Z,10.68
2022-10-26T03:57:45.321Z,14.75
2022-10-26T04:00:17.500Z,10.52
2022-10-26T04:02:53.888Z,12.07
2022-10-26T04:05:22.380Z,9.45
2022-10-26T04:07:55.572Z,9.90
2022-10-26T04:10:27.741Z,16.40
2022-10-26T04:12:57.410Z,9.85
2022-10-26T04:15:25.637Z,12.50
2022-10-26T04:18:02.031Z,11.13
2022-10-26T04:20:33.597Z,16.40
2022-10-26T04:23:07.481Z,13.15
2022-10-26T04:25:35.421Z,18.75
2022-10-26T04:28:06.489Z,13.75
2022-10-26T04:30:36.106Z,14.68
2022-10-26T04:33:06.573Z,13.10
2022-10-26T04:35:34.625Z,13.93
2022-10-26T04:38:06.031Z,11.27
2022-10-26T04:40:35.341Z,13.50
2022-10-26T04:43:03.277Z,14.35
2022-10-26T04:45:31.607Z,17.75
2022-10-26T04:48:08.319Z,19.88
2022-10-26T04:50:37.210Z,17.13
2022-10-26T04:53:09.512Z,18.95
2022-10-26T04:55:37.644Z,14.05
2022-10-26T04:58:06.145Z,17.35
2022-10-26T05:00:35.216Z,21.08
2022-10-26T05:03:05.744Z,17.98
2022-10-26T05:05:36.404Z,22.40
2022-10-26T05:08:05.065Z,20.85
2022-10-26T05:10:34.901Z,19.90
2022-10-26T05:13:04.632Z,20.80
2022-10-26T05:15:32.650Z,20.08
2022-10-26T05:18:03.534Z,20.65
2022-10-26T05:20:34.220Z,21.83
2022-10-26T05:23:05.985Z,23.45
2022-10-26T05:25:37.355Z,23.92
2022-10-26T05:28:15.068Z,22.58
2022-10-26T05:30:45.353Z,23.35
2022-10-26T05:33:15.674Z,27.38
2022-10-26T05:35:43.792Z,25.40
2022-10-26T05:38:17.550Z,29.67
2022-10-26T05:40:54.133Z,40.10
2022-10-26T05:43:27.438Z,27.30
2022-10-26T05:45:55.390Z,31.70
2022-10-26T05:48:23.457Z,28.50
2022-10-26T05:50:51.918Z,26.60
2022-10-26T05:53:20.215Z,31.05
2022-10-26T05:55:48.488Z,30.02
2022-10-26T05:58:16.981Z,29.27
2022-10-26T06:01:24.034Z,29.30
2022-10-26T06:04:48.219Z,33.58
2022-10-26T06:07:22.112Z,31.60
2022-10-26T06:09:50.854Z,28.63
2022-10-26T06:12:19.991Z,37.85
2022-10-26T06:14:48.494Z,33.55
2022-10-26T06:18:01.458Z,35.28
2022-10-26T06:20:36.495Z,38.30
2022-10-26T06:23:32.179Z,33.22
2022-10-26T06:26:30.696Z,34.70
2022-10-26T06:29:32.274Z,36.83
2022-10-26T06:32:00.153Z,36.30
2022-10-26T06:34:37.257Z,36.05
2022-10-26T06:37:05.554Z,34.78
2022-10-26T06:39:44.469Z,41.03
2022-10-26T06:42:12.968Z,39.35
2022-10-26T06:44:41.844Z,33.35
2022-10-26T06:47:27.684Z,39.97
2022-10-26T06:50:38.695Z,37.60
2022-10-26T06:53:44.244Z,36.45
2022-10-26T06:56:13.983Z,41.53
2022-10-26T06:58:45.100Z,35.45
2022-10-26T07:01:13.816Z,39.13
2022-10-26T07:03:41.828Z,37.80
2022-10-26T07:06:10.277Z,39.03
2022-10-26T07:08:39.324Z,38.83
2022-10-26T07:11:09.429Z,41.58
2022-10-26T07:13:44.761Z,35.38
2022-10-26T07:16:12.780Z,33.78
2022-10-26T07:18:40.785Z,30.70
2022-10-26T07:21:14.064Z,28.63
2022-10-26T07:23:42.230Z,25.70
2022-10-26T07:26:10.070Z,27.75
2022-10-26T07:28:38.262Z,22.45
2022-10-26T07:31:06.255Z,25.13
2022-10-26T07:33:36.887Z,24.27
2022-10-26T07:36:11.102Z,22.80
2022-10-26T07:38:39.676Z,21.23
2022-10-26T07:41:08.267Z,21.40
2022-10-26T07:43:36.206Z,20.60
2022-10-26T07:46:04.499Z,20.33
2022-10-26T07:48:34.401Z,22.25
2022-10-26T07:51:03.338Z,17.55
2022-10-26T07:53:32.268Z,22.38
2022-10-26T07:56:00.220Z,23.52
2022-10-26T07:58:28.455Z,23.98
2022-10-26T08:00:57.129Z,25.75
2022-10-26T08:03:25.189Z,28.70
2022-10-26T08:05:56.228Z,28.27
2022-10-26T08:08:24.388Z,25.70
2022-10-26T08:10:53.752Z,27.67
2022-10-26T08:13:21.954Z,23.33
2022-10-26T08:15:50.159Z,27.65
2022-10-26T08:18:18.019Z,27.15
2022-10-26T08:20:46.279Z,24.40
2022-10-26T08:23:14.824Z,22.48
2022-10-26T08:25:42.841Z,20.75
2022-10-26T08:28:10.970Z,20.77
2022-10-26T08:30:38.935Z,22.42
2022-10-26T08:33:08.574Z,22.48
2022-10-26T08:35:36.676Z,21.52
2022-10-26T08:38:04.536Z,20.20
2022-10-26T08:40:43.174Z,24.52
2022-10-26T08:43:29.512Z,22.05
2022-10-26T08:46:05.136Z,25.55
2022-10-26T08:48:40.991Z,25.27
2022-10-26T08:51:27.940Z,26.60
2022-10-26T08:54:41.022Z,24.65
2022-10-26T08:57:35.883Z,25.98
2022-10-26T09:00:11.188Z,19.65
2022-10-26T09:02:39.495Z,23.42
2022-10-26T09:05:17.424Z,25.75
2022-10-26T09:08:18.005Z,26.60
2022-10-26T09:11:10.863Z,24.50
2022-10-26T09:13:55.157Z,20.92
2022-10-26T09:16:55.695Z,25.25
2022-10-26T09:19:50.945Z,26.77
2022-10-26T09:22:38.696Z,26.52
2022-10-26T09:25:24.944Z,23.70
2022-10-26T09:28:01.686Z,23.25
2022-10-26T09:30:31.428Z,24.80
2022-10-26T09:33:25.049Z,25.52
2022-10-26T09:36:21.345Z,24.75
2022-10-26T09:39:10.855Z,25.05
2022-10-26T09:41:59.705Z,26.40
2022-10-26T09:45:18.211Z,25.20
2022-10-26T09:47:52.976Z,24.60
2022-10-26T09:50:31.331Z,27.48
2022-10-26T09:52:59.433Z,24.10
2022-10-26T09:55:27.990Z,18.35
2022-10-26T09:58:01.458Z,25.15
2022-10-26T10:00:30.843Z,21.33
2022-10-26T10:02:59.262Z,21.75
2022-10-26T10:05:52.491Z,23.63
2022-10-26T10:08:24.015Z,24.90
2022-10-26T10:11:13.786Z,26.20
2022-10-26T10:13:46.719Z,20.63
2022-10-26T10:16:24.508Z,22.15
2022-10-26T10:18:59.538Z,23.52
2022-10-26T10:21:59.414Z,22.90
2022-10-26T10:24:30.998Z,24.60
2022-10-26T10:27:17.500Z,21.23
2022-10-26T10:29:59.718Z,21.40
2022-10-26T10:32:35.850Z,22.65
2022-10-26T10:35:29.306Z,18.15
2022-10-26T10:37:57.976Z,21.77
2022-10-26T10:40:31.345Z,18.52
2022-10-26T10:43:14.162Z,24.27
2022-10-26T10:45:55.822Z,13.48
2022-10-26T10:48:31.642Z,16.67
2022-10-26T10:51:11.095Z,18.35
2022-10-26T10:53:54.320Z,20.02
2022-10-26T10:56:47.626Z,22.77
2022-10-26T10:59:45.141Z,18.83
2022-10-26T11:02:30.588Z,15.13
2022-10-26T11:05:24.768Z,18.90
2022-10-26T11:08:09.157Z,15.85
2022-10-26T11:13:54.468Z,15.27
2022-10-26T11:16:39.413Z,12.98
2022-10-26T11:19:23.644Z,11.98
2022-10-26T11:21:56.496Z,10.10
2022-10-26T11:24:56.593Z,11.98
2022-10-26T11:28:11.589Z,14.05
2022-10-26T11:30:48.730Z,10.75
2022-10-26T11:33:31.360Z,9.65
2022-10-26T11:36:11.337Z,10.98
2022-10-26T11:39:15.981Z,13.00
2022-10-26T11:41:51.423Z,14.05
2022-10-26T11:44:52.706Z,12.00
2022-10-26T11:47:35.724Z,11.77
2022-10-26T11:50:26.057Z,13.20
2022-10-26T11:53:17.826Z,12.43
2022-10-26T11:55:54.582Z,10.85
2022-10-26T11:58:28.690Z,12.70
2022-10-26T12:01:04.810Z,14.15
2022-10-26T12:03:48.940Z,11.23
2022-10-26T12:06:25.710Z,16.85
2022-10-26T12:09:13.396Z,11.05
2022-10-26T12:11:57.133Z,17.15
2022-10-26T12:14:49.627Z,14.32
2022-10-26T12:17:35.075Z,13.20
2022-10-26T12:20:31.118Z,12.88
2022-10-26T12:22:59.513Z,13.70
2022-10-26T12:25:27.742Z,8.82
2022-10-26T12:27:58.548Z,10.30
2022-10-26T12:30:32.721Z,12.35
2022-10-26T12:33:29.562Z,12.38
2022-10-26T12:35:57.831Z,12.25
2022-10-26T12:38:29.071Z,14.65
2022-10-26T12:41:20.073Z,9.50
2022-10-26T12:43:48.582Z,12.90
2022-10-26T12:46:16.350Z,14.63
2022-10-26T12:48:50.820Z,10.75
2022-10-26T12:51:27.472Z,13.85
2022-10-26T12:54:04.189Z,11.50
2022-10-26T12:57:10.529Z,10.15
2022-10-26T13:00:00.212Z,11.57
2022-10-26T13:03:00.675Z,9.13
2022-10-26T13:06:09.049Z,9.40
2022-10-26T13:08:57.730Z,6.75
2022-10-26T13:11:35.455Z,7.57
2022-10-26T13:14:07.643Z,8.93
2022-10-26T13:16:35.950Z,10.98
2022-10-26T13:19:03.907Z,9.80
2022-10-26T13:21:45.782Z,10.95
2022-10-26T13:24:15.074Z,14.10
2022-10-26T13:27:34.049Z,9.77
2022-10-26T13:30:04.752Z,11.30
2022-10-26T13:32:48.922Z,9.60
2022-10-26T13:35:18.353Z,9.23
2022-10-26T13:37:50.591Z,8.80
2022-10-26T13:40:30.011Z,9.30
2022-10-26T13:43:03.795Z,7.88
2022-10-26T13:45:54.982Z,12.27
2022-10-26T13:48:41.671Z,9.77
2022-10-26T13:51:25.969Z,11.70
2022-10-26T13:54:18.985Z,11.95
2022-10-26T13:57:17.166Z,9.43
2022-10-26T13:59:46.879Z,13.35
2022-10-26T14:02:30.825Z,9.00
2022-10-26T14:05:05.576Z,11.07
2022-10-26T14:07:56.835Z,13.25
2022-10-26T14:15:37.106Z,17.50
2022-10-26T14:18:05.649Z,12.63
2022-10-26T14:20:33.616Z,13.60
2022-10-26T14:23:01.608Z,15.48
2022-10-26T14:25:42.181Z,11.52
2022-10-26T14:28:25.946Z,10.40
2022-10-26T14:30:54.393Z,12.80
2022-10-26T14:33:29.385Z,16.63
2022-10-26T14:35:57.923Z,11.80
2022-10-26T14:38:32.681Z,11.13
2022-10-26T14:41:00.714Z,12.07
2022-10-26T14:43:28.777Z,12.05
2022-10-26T14:45:57.515Z,13.23
2022-10-26T14:48:35.929Z,18.13
2022-10-26T14:51:34.407Z,16.65
2022-10-26T14:54:04.519Z,11.88
2022-10-26T14:56:41.294Z,15.10
2022-10-26T14:59:28.668Z,9.15
2022-10-26T15:02:17.227Z,14.15
2022-10-26T15:05:04.014Z,14.65
2022-10-26T15:07:39.950Z,11.45
2022-10-26T15:10:37.115Z,11.38
2022-10-26T15:13:29.607Z,14.73
2022-10-26T15:16:23.295Z,11.38
2022-10-26T15:18:58.999Z,11.75
2022-10-26T15:21:37.568Z,11.30
2022-10-26T15:24:38.458Z,12.55
2022-10-26T15:27:17.032Z,18.98
2022-10-26T15:29:49.470Z,18.95
2022-10-26T15:35:27.897Z,15.55
2022-10-26T15:37:57.805Z,19.25
2022-10-26T15:40:27.466Z,15.02
2022-10-26T15:42:58.311Z,16.27
2022-10-26T15:45:34.253Z,17.87
2022-10-26T15:48:25.755Z,16.27
2022-10-26T15:50:54.064Z,14.98
2022-10-26T15:53:30.664Z,15.23
2022-10-26T15:56:00.546Z,12.13
2022-10-26T15:58:31.529Z,14.20
2022-10-26T16:00:59.850Z,25.50
2022-10-26T16:03:28.675Z,21.58
2022-10-26T16:06:02.619Z,17.10
2022-10-26T16:08:32.215Z,23.50
2022-10-26T16:11:00.142Z,19.08
2022-10-26T16:13:28.720Z,25.80
2022-10-26T16:15:57.341Z,18.65
2022-10-26T16:18:28.308Z,16.52
2022-10-26T16:20:56.623Z,15.70
2022-10-26T16:23:24.816Z,20.88
2022-10-26T16:25:54.137Z,20.23
2022-10-26T16:28:22.249Z,20.33
2022-10-26T16:30:50.397Z,19.10
2022-10-26T16:33:18.587Z,19.13
2022-10-26T16:35:58.229Z,18.67
2022-10-26T16:38:28.003Z,26.77
2022-10-26T16:43:59.032Z,27.35
2022-10-26T16:46:27.380Z,27.63
2022-10-26T16:49:02.225Z,26.02
2022-10-26T16:51:33.441Z,28.85
2022-10-26T16:54:01.706Z,27.40
2022-10-26T16:56:30.681Z,28.60
2022-10-26T16:58:59.064Z,29.83
2022-10-26T17:01:27.381Z,31.42
2022-10-26T17:03:56.235Z,25.15
2022-10-26T17:06:25.791Z,29.73
2022-10-26T17:08:53.626Z,23.45
2022-10-26T17:11:22.404Z,21.58
2022-10-26T17:13:55.179Z,27.50
2022-10-26T17:16:25.345Z,27.58
2022-10-26T17:18:54.513Z,40.28
2022-10-26T17:21:36.457Z,57.90
2022-10-26T17:24:04.760Z,62.67
2022-10-26T17:26:33.280Z,68.80
2022-10-26T17:29:01.990Z,76.80
2022-10-26T17:31:32.533Z,127.22
2022-10-26T17:34:00.534Z,92.07
2022-10-26T17:36:28.728Z,73.10
2022-10-26T17:38:57.706Z,57.17
2022-10-26T17:41:26.117Z,46.55
2022-10-26T17:43:54.462Z,57.20
2022-10-26T17:46:25.800Z,72.28
2022-10-26T17:48:57.245Z,65.38
2022-10-26T17:51:27.174Z,62.58
2022-10-26T17:53:59.808Z,72.55
2022-10-26T17:56:32.111Z,66.88
2022-10-26T17:59:04.682Z,82.63
2022-10-26T18:01:37.403Z,76.53
2022-10-26T18:04:05.729Z,83.20
2022-10-26T18:06:33.715Z,87.20
2022-10-26T18:09:01.839Z,85.00
2022-10-26T18:13:59.937Z,85.93
2022-10-26T18:16:29.068Z,77.20
2022-10-26T18:19:01.582Z,72.28
2022-10-26T18:21:32.904Z,69.63
2022-10-26T18:24:01.197Z,62.40
2022-10-26T18:26:31.012Z,68.25
2022-10-26T18:29:01.310Z,65.68
2022-10-26T18:31:32.130Z,67.15
2022-10-26T18:34:04.228Z,69.07
2022-10-26T18:36:33.418Z,64.65
2022-10-26T18:39:01.853Z,64.32
2022-10-26T18:41:30.156Z,60.40
2022-10-26T18:44:00.072Z,96.38
2022-10-26T18:46:32.076Z,64.50
2022-10-26T18:49:01.175Z,73.15
2022-10-26T18:51:34.537Z,69.53
2022-10-26T18:54:03.060Z,69.00
2022-10-26T18:56:31.537Z,75.13
2022-10-26T18:59:01.243Z,81.65
2022-10-26T19:01:36.614Z,102.38
2022-10-26T19:04:09.522Z,111.88
2022-10-26T19:06:47.720Z,103.03
2022-10-26T19:09:19.334Z,92.40
2022-10-26T19:11:48.439Z,82.35
2022-10-26T19:14:19.712Z,92.05
2022-10-26T19:16:51.974Z,95.10
2022-10-26T19:19:21.143Z,107.07
2022-10-26T19:21:50.580Z,95.85
2022-10-26T19:24:24.048Z,92.90
2022-10-26T19:26:54.527Z,102.85
2022-10-26T19:29:23.137Z,90.00
2022-10-26T19:31:53.501Z,88.85
2022-10-26T19:34:22.125Z,93.40
2022-10-26T19:36:50.264Z,93.50
2022-10-26T19:39:19.278Z,85.65
2022-10-26T19:41:47.780Z,82.93
2022-10-26T19:45:37.369Z,84.68
2022-10-26T19:48:05.876Z,99.93
2022-10-26T19:50:34.018Z,81.57
2022-10-26T19:53:04.057Z,84.15
2022-10-26T19:55:32.557Z,93.10
2022-10-26T19:58:00.656Z,101.93
2022-10-26T20:00:35.976Z,83.65
2022-10-26T20:03:05.123Z,100.22
2022-10-26T20:05:33.619Z,93.63
2022-10-26T20:08:01.803Z,131.48
2022-10-26T20:10:34.412Z,177.85
2022-10-26T20:13:02.581Z,173.27
2022-10-26T20:15:37.907Z,155.27
2022-10-26T20:18:07.190Z,158.27
2022-10-26T20:20:38.102Z,114.00
2022-10-26T20:23:10.565Z,72.97
2022-10-26T20:25:50.731Z,93.82
2022-10-26T20:28:20.556Z,80.30
2022-10-26T20:30:50.037Z,71.10
2022-10-26T20:33:18.713Z,68.13
2022-10-26T20:35:47.692Z,81.30
2022-10-26T20:38:21.420Z,83.68
2022-10-26T20:41:02.659Z,95.55
2022-10-26T20:43:33.324Z,113.32
2022-10-26T20:46:01.924Z,109.30
2022-10-26T20:48:30.410Z,82.10
2022-10-26T20:51:08.144Z,87.05
2022-10-26T20:53:44.467Z,83.60
2022-10-26T20:56:26.515Z,64.13
2022-10-26T20:59:01.358Z,213.50
2022-10-26T21:01:32.604Z,153.48
2022-10-26T21:04:03.891Z,74.38
2022-10-26T21:06:40.356Z,65.88
2022-10-26T21:09:09.637Z,60.83
2022-10-26T21:11:37.685Z,56.00
2022-10-26T21:14:06.700Z,60.75
2022-10-26T21:16:34.556Z,63.08
2022-10-26T21:19:05.140Z,68.47
2022-10-26T21:21:33.291Z,80.63
2022-10-26T21:24:01.541Z,76.00
2022-10-26T21:26:30.173Z,73.57
2022-10-26T21:28:59.643Z,79.63
2022-10-26T21:31:27.721Z,76.80
2022-10-26T21:33:55.938Z,68.63
2022-10-26T21:36:26.706Z,74.20
2022-10-26T21:38:54.650Z,71.40
2022-10-26T21:44:03.374Z,63.72
2022-10-26T21:46:40.518Z,69.70
2022-10-26T21:49:10.447Z,70.38
2022-10-26T21:51:38.527Z,73.30
2022-10-26T21:54:06.678Z,80.82
2022-10-26T21:56:34.780Z,74.10
2022-10-26T21:59:03.065Z,76.95
2022-10-26T22:01:31.116Z,79.95
2022-10-26T22:03:59.167Z,88.05
2022-10-26T22:06:27.247Z,91.18
2022-10-26T22:08:55.206Z,85.65
2022-10-26T22:11:25.383Z,86.97
2022-10-26T22:13:53.809Z,90.53
2022-10-26T22:16:23.859Z,95.88
2022-10-26T22:18:55.289Z,92.53
2022-10-26T22:21:26.457Z,87.93
2022-10-26T22:23:55.104Z,66.63
2022-10-26T22:26:25.497Z,85.00
2022-10-26T22:28:56.455Z,80.38
2022-10-26T22:31:37.791Z,76.70
2022-10-26T22:34:13.657Z,85.20
2022-10-26T22:36:42.010Z,88.85
2022-10-26T22:39:10.010Z,81.97
2022-10-26T22:41:38.428Z,85.43
2022-10-26T22:44:07.209Z,81.57
2022-10-26T22:46:35.146Z,81.65
2022-10-26T22:49:03.705Z,82.75
2022-10-26T22:51:34.985Z,88.15
2022-10-26T22:54:04.715Z,82.28
2022-10-26T22:56:35.418Z,81.47
2022-10-26T22:59:05.237Z,86.65
2022-10-26T23:01:38.536Z,86.28
2022-10-26T23:04:06.599Z,83.35
2022-10-26T23:06:34.776Z,84.15
2022-10-26T23:09:03.027Z,77.80
2022-10-26T23:11:31.094Z,84.90
2022-10-26T23:14:01.619Z,87.40
2022-10-26T23:16:31.065Z,82.75
2022-10-26T23:18:59.806Z,81.53
2022-10-26T23:21:29.619Z,78.90
2022-10-26T23:23:58.722Z,83.07
2022-10-26T23:26:26.722Z,74.78
2022-10-26T23:28:54.852Z,84.38
2022-10-26T23:31:26.355Z,79.28
2022-10-26T23:33:56.495Z,71.00
2022-10-26T23:36:24.707Z,63.97
2022-10-26T23:38:53.134Z,76.22
2022-10-26T23:41:21.091Z,67.07
2022-10-26T23:43:49.198Z,67.20
2022-10-26T23:46:17.333Z,63.58
2022-10-26T23:48:45.547Z,72.72
2022-10-26T23:51:13.855Z,80.57
2022-10-26T23:53:41.819Z,71.18
2022-10-26T23:56:09.723Z,65.28
2022-10-26T23:58:37.760Z,63.22
